Warning: Javascript must be enabled to use all the features on this page!


Page Loading - Please Wait...

Click to hideNews Bulletins

Peak Streamflow for the Nation

USGS 01523500 CANACADEA CREEK NEAR HORNELL NY

Steuben County, New York
Hydrologic Unit Code 02050104
Latitude  42°20'05", Longitude  77°40'59" NAD83
Drainage area 57.9  square miles
Gage datum 1,185.68 feet above NGVD29
Output formats
Table
Graph
Tab-separated file
peakfq (watstore) format
Reselect output format
Water
Year
Date Gage
Height
(feet)
Stream-
flow
(cfs)
1935 1935-07-08 16.613 21,0007
1941 1941-04-05 5.623,6 3,880
1942 1942-05-17 7.353 6,600
1945 1945-05-17 5.146 9,430
1946 1946-05-27 5.25 5,270
1947 1947-06-03 6.65 6,900
1948 1948-03-22 5.28 4,330
1949 1949-02-15 3.18 1,260
1950 1950-03-28 4.74 3,4206
1951 1950-11-04 4.40 2,8906
1952 1952-04-05 3.39 1,5006
1953 1953-03-25 3.70 1,8906
1954 1954-02-17 2.80 8706
1955 1955-03-03 3.68 1,8606
1956 1956-03-09 4.542 2,9806
1957 1957-01-23 3.74 1,8106
1958 1958-06-13 3.46 1,5806
1959 1959-01-23 4.32 2,7706
1960 1960-04-03 4.44 2,7506
1961 1961-02-27 4.15 2,3206
1962 1962-04-07 3.012 9546
1963 1963-03-17 3.70 1,7006
1964 1964-03-07 4.18 2,3606
1965 1965-02-08 2.932 8826
1966 1966-02-15 3.53 1,4806
1967 1967-08-03 4.34 2,6006
1968 1968-06-26 3.98 2,0706
1969 1969-04-10 3.00 1,0206
1970 1970-04-02 3.20 1,1006
1971 1971-03-15 3.28 1,3006
1972 1972-06-23 6.14 5,8806,9
1973 1972-12-08 3.84 1,9906
1974 1974-06-20 3.17 1,1906
1975 1975-01-11 3.01 1,0306
1976 1975-12-15 2.77 8106
1977 1977-09-14 2.86 8896
1978 1978-03-23 3.24 1,2606
1979 1979-01-25 2.97 9916
1980 1979-11-26 2.74 7846
1981 1981-02-21 2.86 8896
1982 1981-11-03 5.34 4,3506
1983 1983-06-28 3.40 1,4406
1984 1984-02-16 4.28 2,6006
1985 1985-02-24 2.74 7846
1986 1985-11-17 2.96 1,1406
1987 1987-04-15 3.40 1,5006
1988 1988-07-21 3.04 1,0606
1989 1989-06-23 3.40 1,7206
1990 1990-04-11 2.78 9756
1991 1990-12-30 2.95 1,1606
1992 1992-07-17 2.93 1,1406
1993 1993-04-05 3.46 1,8006
1994 1994-03-26 3.12 1,3706
1995 1995-01-22 3.03 1,2606
1996 1996-01-22 3.48 1,8006
1997 1996-11-10 3.33 1,6306
1998 1998-01-11 3.21 1,4206
1999 1999-01-24 2.58 6686
2000 2000-06-14 2.70 8796
2001 2001-04-09 2.94 1,1406
2002 2002-06-28 2.84 1,0206
2003 2003-03-23 3.29 1,5106
2004 2004-09-19 3.23 1,3706
2005 2005-04-05 3.21 1,3406
2006 2005-11-30 3.11 1,2306
2007 2007-03-16 3.16 1,3606
2008 2007-12-24 2.62 7946
2009 2009-03-10 2.726 8856
2010 2010-01-26 4.313,6 1,1506
2011 2010-12-02 2.92 1,1206
2012 2011-11-15 2.27 5196
2013 2013-04-11 2.77 9606
2014 2013-12-22 2.93 1,1306
2015 2015-04-04 2.66 8526
2016 2016-09-18 2.62 8046
2017 2017-01-12 2.95 1,1406
2018 2018-01-14 3.10 1,3106
2019 2019-04-15 2.87 1,0606
2020 2020-03-04 2.89 8606
?
  Peak Gage-Height Qualification Codes.
?
  Peak Streamflow Qualification Codes.